sensor_id;sensor_type;location;lat;lon;timestamp;temperature;humidity
33837;DHT22;20140;49.356;8.812;2022-08-03T00:01:37;17.40;99.90
33837;DHT22;20140;49.356;8.812;2022-08-03T00:04:06;17.40;99.90
33837;DHT22;20140;49.356;8.812;2022-08-03T00:06:32;17.40;99.90
33837;DHT22;20140;49.356;8.812;2022-08-03T00:08:58;17.30;99.90
33837;DHT22;20140;49.356;8.812;2022-08-03T00:11:23;17.20;99.90
33837;DHT22;20140;49.356;8.812;2022-08-03T00:13:49;17.20;99.90
33837;DHT22;20140;49.356;8.812;2022-08-03T00:16:15;17.20;99.90
33837;DHT22;20140;49.356;8.812;2022-08-03T00:18:41;17.20;99.90
33837;DHT22;20140;49.356;8.812;2022-08-03T00:21:06;17.30;99.90
33837;DHT22;20140;49.356;8.812;2022-08-03T00:23:32;17.30;99.90
33837;DHT22;20140;49.356;8.812;2022-08-03T00:25:58;17.20;99.90
33837;DHT22;20140;49.356;8.812;2022-08-03T00:28:24;17.20;99.90
33837;DHT22;20140;49.356;8.812;2022-08-03T00:30:49;17.20;99.90
33837;DHT22;20140;49.356;8.812;2022-08-03T00:33:15;17.10;99.90
33837;DHT22;20140;49.356;8.812;2022-08-03T00:35:41;17.10;99.90
33837;DHT22;20140;49.356;8.812;2022-08-03T00:38:06;17.00;99.90
33837;DHT22;20140;49.356;8.812;2022-08-03T00:40:32;17.00;99.90
33837;DHT22;20140;49.356;8.812;2022-08-03T00:43:00;17.00;99.90
33837;DHT22;20140;49.356;8.812;2022-08-03T00:45:29;17.10;99.90
33837;DHT22;20140;49.356;8.812;2022-08-03T00:47:55;17.10;99.90
33837;DHT22;20140;49.356;8.812;2022-08-03T00:50:23;17.00;99.90
33837;DHT22;20140;49.356;8.812;2022-08-03T00:52:50;16.90;99.90
33837;DHT22;20140;49.356;8.812;2022-08-03T00:55:16;16.80;99.90
33837;DHT22;20140;49.356;8.812;2022-08-03T00:57:42;16.80;99.90
33837;DHT22;20140;49.356;8.812;2022-08-03T01:00:10;16.80;99.90
33837;DHT22;20140;49.356;8.812;2022-08-03T01:02:39;16.70;99.90
33837;DHT22;20140;49.356;8.812;2022-08-03T01:05:06;16.60;99.90
33837;DHT22;20140;49.356;8.812;2022-08-03T01:14:23;16.60;99.90
33837;DHT22;20140;49.356;8.812;2022-08-03T01:16:30;16.60;99.90
33837;DHT22;20140;49.356;8.812;2022-08-03T01:21:33;16.50;99.90
33837;DHT22;20140;49.356;8.812;2022-08-03T01:26:52;16.40;99.90
33837;DHT22;20140;49.356;8.812;2022-08-03T01:29:49;16.40;99.90
33837;DHT22;20140;49.356;8.812;2022-08-03T01:32:19;16.40;99.90
33837;DHT22;20140;49.356;8.812;2022-08-03T01:34:54;16.50;99.90
33837;DHT22;20140;49.356;8.812;2022-08-03T01:37:26;16.50;99.90
33837;DHT22;20140;49.356;8.812;2022-08-03T01:39:57;16.50;99.90
33837;DHT22;20140;49.356;8.812;2022-08-03T01:42:24;16.50;99.90
33837;DHT22;20140;49.356;8.812;2022-08-03T01:44:51;16.40;99.90
33837;DHT22;20140;49.356;8.812;2022-08-03T01:47:19;16.40;99.90
33837;DHT22;20140;49.356;8.812;2022-08-03T01:49:45;16.40;99.90
33837;DHT22;20140;49.356;8.812;2022-08-03T01:52:13;16.40;99.90
33837;DHT22;20140;49.356;8.812;2022-08-03T01:54:44;16.40;99.90
33837;DHT22;20140;49.356;8.812;2022-08-03T01:57:12;16.40;99.90
33837;DHT22;20140;49.356;8.812;2022-08-03T01:59:40;16.30;99.90
33837;DHT22;20140;49.356;8.812;2022-08-03T02:02:07;16.30;99.90
33837;DHT22;20140;49.356;8.812;2022-08-03T02:04:37;16.20;99.90
33837;DHT22;20140;49.356;8.812;2022-08-03T02:07:04;16.10;99.90
33837;DHT22;20140;49.356;8.812;2022-08-03T02:09:31;16.10;99.90
33837;DHT22;20140;49.356;8.812;2022-08-03T02:11:57;16.10;99.90
33837;DHT22;20140;49.356;8.812;2022-08-03T02:14:25;16.10;99.90
33837;DHT22;20140;49.356;8.812;2022-08-03T02:16:53;16.10;99.90
33837;DHT22;20140;49.356;8.812;2022-08-03T02:19:19;16.10;99.90
33837;DHT22;20140;49.356;8.812;2022-08-03T02:21:46;16.10;99.90
33837;DHT22;20140;49.356;8.812;2022-08-03T02:24:11;16.10;99.90
33837;DHT22;20140;49.356;8.812;2022-08-03T02:26:38;16.00;99.90
33837;DHT22;20140;49.356;8.812;2022-08-03T02:29:19;16.00;99.90
33837;DHT22;20140;49.356;8.812;2022-08-03T02:31:47;15.90;99.90
33837;DHT22;20140;49.356;8.812;2022-08-03T02:34:14;16.00;99.90
33837;DHT22;20140;49.356;8.812;2022-08-03T02:36:43;16.00;99.90
33837;DHT22;20140;49.356;8.812;2022-08-03T02:39:12;16.10;99.90
33837;DHT22;20140;49.356;8.812;2022-08-03T02:41:51;16.10;99.90
33837;DHT22;20140;49.356;8.812;2022-08-03T02:44:22;16.00;99.90
33837;DHT22;20140;49.356;8.812;2022-08-03T02:46:54;15.90;99.90
33837;DHT22;20140;49.356;8.812;2022-08-03T02:49:21;15.90;99.90
33837;DHT22;20140;49.356;8.812;2022-08-03T02:51:48;15.80;99.90
33837;DHT22;20140;49.356;8.812;2022-08-03T02:54:16;15.70;99.90
33837;DHT22;20140;49.356;8.812;2022-08-03T02:56:44;15.70;99.90
33837;DHT22;20140;49.356;8.812;2022-08-03T02:59:11;15.70;99.90
33837;DHT22;20140;49.356;8.812;2022-08-03T03:01:37;15.70;99.90
33837;DHT22;20140;49.356;8.812;2022-08-03T03:04:04;15.60;99.90
33837;DHT22;20140;49.356;8.812;2022-08-03T03:06:30;15.60;99.90
33837;DHT22;20140;49.356;8.812;2022-08-03T03:08:56;15.70;99.90
33837;DHT22;20140;49.356;8.812;2022-08-03T03:11:23;15.70;99.90
33837;DHT22;20140;49.356;8.812;2022-08-03T03:13:50;15.70;99.90
33837;DHT22;20140;49.356;8.812;2022-08-03T03:16:17;15.70;99.90
33837;DHT22;20140;49.356;8.812;2022-08-03T03:18:44;15.60;99.90
33837;DHT22;20140;49.356;8.812;2022-08-03T03:21:11;15.70;99.90
33837;DHT22;20140;49.356;8.812;2022-08-03T03:23:38;15.60;99.90
33837;DHT22;20140;49.356;8.812;2022-08-03T03:26:05;15.70;99.90
33837;DHT22;20140;49.356;8.812;2022-08-03T03:28:34;15.70;99.90
33837;DHT22;20140;49.356;8.812;2022-08-03T03:31:05;15.60;99.90
33837;DHT22;20140;49.356;8.812;2022-08-03T03:33:32;15.50;99.90
33837;DHT22;20140;49.356;8.812;2022-08-03T03:35:59;15.40;99.90
33837;DHT22;20140;49.356;8.812;2022-08-03T03:38:25;15.40;99.90
33837;DHT22;20140;49.356;8.812;2022-08-03T03:40:50;15.40;99.90
33837;DHT22;20140;49.356;8.812;2022-08-03T03:43:16;15.40;99.90
33837;DHT22;20140;49.356;8.812;2022-08-03T03:45:46;15.40;99.90
33837;DHT22;20140;49.356;8.812;2022-08-03T03:48:12;15.50;99.90
33837;DHT22;20140;49.356;8.812;2022-08-03T03:50:38;15.40;99.90
33837;DHT22;20140;49.356;8.812;2022-08-03T03:53:08;15.40;99.90
33837;DHT22;20140;49.356;8.812;2022-08-03T03:55:38;15.40;99.90
33837;DHT22;20140;49.356;8.812;2022-08-03T03:58:04;15.40;99.90
33837;DHT22;20140;49.356;8.812;2022-08-03T04:00:30;15.50;99.90
33837;DHT22;20140;49.356;8.812;2022-08-03T04:02:56;15.50;99.90
33837;DHT22;20140;49.356;8.812;2022-08-03T04:05:22;15.60;99.90
33837;DHT22;20140;49.356;8.812;2022-08-03T04:08:11;15.60;99.90
33837;DHT22;20140;49.356;8.812;2022-08-03T04:11:17;15.60;99.90
33837;DHT22;20140;49.356;8.812;2022-08-03T04:13:50;15.50;99.90
33837;DHT22;20140;49.356;8.812;2022-08-03T04:16:19;15.40;99.90
33837;DHT22;20140;49.356;8.812;2022-08-03T04:18:56;15.50;99.90
33837;DHT22;20140;49.356;8.812;2022-08-03T04:21:23;15.40;99.90
33837;DHT22;20140;49.356;8.812;2022-08-03T04:23:52;15.40;99.90
33837;DHT22;20140;49.356;8.812;2022-08-03T04:26:21;15.50;99.90
33837;DHT22;20140;49.356;8.812;2022-08-03T04:28:47;15.50;99.90
33837;DHT22;20140;49.356;8.812;2022-08-03T04:31:15;15.60;99.90
33837;DHT22;20140;49.356;8.812;2022-08-03T04:33:43;15.60;99.90
33837;DHT22;20140;49.356;8.812;2022-08-03T04:36:11;15.70;99.90
33837;DHT22;20140;49.356;8.812;2022-08-03T04:38:44;15.70;99.90
33837;DHT22;20140;49.356;8.812;2022-08-03T04:41:12;15.60;99.90
33837;DHT22;20140;49.356;8.812;2022-08-03T04:43:38;15.60;99.90
33837;DHT22;20140;49.356;8.812;2022-08-03T04:46:06;15.50;99.90
33837;DHT22;20140;49.356;8.812;2022-08-03T04:48:33;15.50;99.90
33837;DHT22;20140;49.356;8.812;2022-08-03T04:50:59;15.40;99.90
33837;DHT22;20140;49.356;8.812;2022-08-03T04:53:26;15.50;99.90
33837;DHT22;20140;49.356;8.812;2022-08-03T04:55:51;15.60;99.90
33837;DHT22;20140;49.356;8.812;2022-08-03T04:58:17;15.80;99.90
33837;DHT22;20140;49.356;8.812;2022-08-03T05:00:42;15.80;99.90
33837;DHT22;20140;49.356;8.812;2022-08-03T05:03:09;15.90;99.90
33837;DHT22;20140;49.356;8.812;2022-08-03T05:05:35;16.00;99.90
33837;DHT22;20140;49.356;8.812;2022-08-03T05:08:00;15.90;99.90
33837;DHT22;20140;49.356;8.812;2022-08-03T05:10:26;15.90;99.90
33837;DHT22;20140;49.356;8.812;2022-08-03T05:12:52;15.90;99.90
33837;DHT22;20140;49.356;8.812;2022-08-03T05:15:18;16.00;99.90
33837;DHT22;20140;49.356;8.812;2022-08-03T05:17:43;16.00;99.90
33837;DHT22;20140;49.356;8.812;2022-08-03T05:20:09;15.90;99.90
33837;DHT22;20140;49.356;8.812;2022-08-03T05:22:35;16.00;99.90
33837;DHT22;20140;49.356;8.812;2022-08-03T05:25:02;16.10;99.90
33837;DHT22;20140;49.356;8.812;2022-08-03T05:27:28;16.10;99.90
33837;DHT22;20140;49.356;8.812;2022-08-03T05:29:53;16.30;99.90
33837;DHT22;20140;49.356;8.812;2022-08-03T05:32:19;16.50;99.90
33837;DHT22;20140;49.356;8.812;2022-08-03T05:34:45;16.60;99.90
33837;DHT22;20140;49.356;8.812;2022-08-03T05:37:10;16.80;99.90
33837;DHT22;20140;49.356;8.812;2022-08-03T05:39:36;16.80;99.90
33837;DHT22;20140;49.356;8.812;2022-08-03T05:42:02;16.90;99.90
33837;DHT22;20140;49.356;8.812;2022-08-03T05:44:28;17.00;99.90
33837;DHT22;20140;49.356;8.812;2022-08-03T05:46:54;17.10;99.90
33837;DHT22;20140;49.356;8.812;2022-08-03T05:49:19;17.30;99.90
33837;DHT22;20140;49.356;8.812;2022-08-03T05:51:45;17.40;99.90
33837;DHT22;20140;49.356;8.812;2022-08-03T05:54:11;17.50;99.90
33837;DHT22;20140;49.356;8.812;2022-08-03T05:56:36;17.60;99.90
33837;DHT22;20140;49.356;8.812;2022-08-03T05:59:02;17.70;99.90
33837;DHT22;20140;49.356;8.812;2022-08-03T06:01:28;17.80;99.90
33837;DHT22;20140;49.356;8.812;2022-08-03T06:03:56;17.90;99.90
33837;DHT22;20140;49.356;8.812;2022-08-03T06:06:22;18.10;99.90
33837;DHT22;20140;49.356;8.812;2022-08-03T06:08:47;18.20;99.90
33837;DHT22;20140;49.356;8.812;2022-08-03T06:11:13;18.30;99.90
33837;DHT22;20140;49.356;8.812;2022-08-03T06:13:39;18.40;99.90
33837;DHT22;20140;49.356;8.812;2022-08-03T06:16:05;18.50;99.90
33837;DHT22;20140;49.356;8.812;2022-08-03T06:18:30;18.60;99.90
33837;DHT22;20140;49.356;8.812;2022-08-03T06:20:56;18.80;99.90
33837;DHT22;20140;49.356;8.812;2022-08-03T06:23:22;18.90;99.90
33837;DHT22;20140;49.356;8.812;2022-08-03T06:25:47;19.00;99.90
33837;DHT22;20140;49.356;8.812;2022-08-03T06:28:13;19.10;99.90
33837;DHT22;20140;49.356;8.812;2022-08-03T06:30:39;19.20;99.90
33837;DHT22;20140;49.356;8.812;2022-08-03T06:33:05;19.40;99.90
33837;DHT22;20140;49.356;8.812;2022-08-03T06:35:32;19.50;99.90
33837;DHT22;20140;49.356;8.812;2022-08-03T06:37:57;19.60;99.90
33837;DHT22;20140;49.356;8.812;2022-08-03T06:40:23;19.70;99.90
33837;DHT22;20140;49.356;8.812;2022-08-03T06:42:54;19.80;99.90
33837;DHT22;20140;49.356;8.812;2022-08-03T06:45:20;19.90;99.90
33837;DHT22;20140;49.356;8.812;2022-08-03T06:47:46;19.90;99.90
33837;DHT22;20140;49.356;8.812;2022-08-03T06:50:12;20.00;99.90
33837;DHT22;20140;49.356;8.812;2022-08-03T06:52:37;20.10;99.90
33837;DHT22;20140;49.356;8.812;2022-08-03T06:55:04;20.10;99.90
33837;DHT22;20140;49.356;8.812;2022-08-03T06:57:30;20.00;99.90
33837;DHT22;20140;49.356;8.812;2022-08-03T06:59:55;20.00;99.90
33837;DHT22;20140;49.356;8.812;2022-08-03T07:02:26;20.10;99.90
33837;DHT22;20140;49.356;8.812;2022-08-03T07:04:52;20.10;99.90
33837;DHT22;20140;49.356;8.812;2022-08-03T07:07:18;20.20;99.90
33837;DHT22;20140;49.356;8.812;2022-08-03T07:09:45;20.50;99.90
33837;DHT22;20140;49.356;8.812;2022-08-03T07:12:11;20.80;99.90
33837;DHT22;20140;49.356;8.812;2022-08-03T07:14:36;21.00;99.90
33837;DHT22;20140;49.356;8.812;2022-08-03T07:17:02;21.20;99.90
33837;DHT22;20140;49.356;8.812;2022-08-03T07:19:27;21.20;99.90
33837;DHT22;20140;49.356;8.812;2022-08-03T07:21:53;21.20;99.90
33837;DHT22;20140;49.356;8.812;2022-08-03T07:24:18;21.30;99.90
33837;DHT22;20140;49.356;8.812;2022-08-03T07:26:44;21.50;99.90
33837;DHT22;20140;49.356;8.812;2022-08-03T07:29:10;21.50;99.90
33837;DHT22;20140;49.356;8.812;2022-08-03T07:31:35;21.70;99.90
33837;DHT22;20140;49.356;8.812;2022-08-03T07:34:01;21.80;99.90
33837;DHT22;20140;49.356;8.812;2022-08-03T07:36:26;22.00;99.90
33837;DHT22;20140;49.356;8.812;2022-08-03T07:38:52;22.20;99.90
33837;DHT22;20140;49.356;8.812;2022-08-03T07:41:17;22.40;99.90
33837;DHT22;20140;49.356;8.812;2022-08-03T07:43:43;22.60;99.90
33837;DHT22;20140;49.356;8.812;2022-08-03T07:46:08;22.80;99.90
33837;DHT22;20140;49.356;8.812;2022-08-03T07:48:34;23.10;99.90
33837;DHT22;20140;49.356;8.812;2022-08-03T07:50:59;23.20;99.90
33837;DHT22;20140;49.356;8.812;2022-08-03T07:53:25;23.40;99.90
33837;DHT22;20140;49.356;8.812;2022-08-03T07:55:51;23.40;99.90
33837;DHT22;20140;49.356;8.812;2022-08-03T07:58:16;23.40;99.90
33837;DHT22;20140;49.356;8.812;2022-08-03T08:00:43;23.60;99.90
33837;DHT22;20140;49.356;8.812;2022-08-03T08:03:09;23.60;99.90
33837;DHT22;20140;49.356;8.812;2022-08-03T08:05:35;23.60;99.90
33837;DHT22;20140;49.356;8.812;2022-08-03T08:08:01;23.60;99.90
33837;DHT22;20140;49.356;8.812;2022-08-03T08:10:27;23.70;99.90
33837;DHT22;20140;49.356;8.812;2022-08-03T08:12:53;23.90;99.90
33837;DHT22;20140;49.356;8.812;2022-08-03T08:15:19;23.90;99.90
33837;DHT22;20140;49.356;8.812;2022-08-03T08:17:56;24.10;99.90
33837;DHT22;20140;49.356;8.812;2022-08-03T08:20:24;24.20;99.90
33837;DHT22;20140;49.356;8.812;2022-08-03T08:22:50;24.40;99.90
33837;DHT22;20140;49.356;8.812;2022-08-03T08:25:16;24.60;99.30
33837;DHT22;20140;49.356;8.812;2022-08-03T08:27:44;24.90;99.40
33837;DHT22;20140;49.356;8.812;2022-08-03T08:30:11;24.90;99.20
33837;DHT22;20140;49.356;8.812;2022-08-03T08:32:37;24.90;99.10
33837;DHT22;20140;49.356;8.812;2022-08-03T08:35:04;25.10;99.30
33837;DHT22;20140;49.356;8.812;2022-08-03T08:37:30;25.20;98.40
33837;DHT22;20140;49.356;8.812;2022-08-03T08:39:56;25.30;98.70
33837;DHT22;20140;49.356;8.812;2022-08-03T08:42:21;25.40;98.70
33837;DHT22;20140;49.356;8.812;2022-08-03T08:44:47;25.60;98.20
33837;DHT22;20140;49.356;8.812;2022-08-03T08:47:13;25.80;97.70
33837;DHT22;20140;49.356;8.812;2022-08-03T08:49:40;26.20;97.20
33837;DHT22;20140;49.356;8.812;2022-08-03T08:52:07;26.30;97.30
33837;DHT22;20140;49.356;8.812;2022-08-03T08:54:33;26.50;96.10
33837;DHT22;20140;49.356;8.812;2022-08-03T08:57:04;26.50;96.50
33837;DHT22;20140;49.356;8.812;2022-08-03T08:59:33;26.60;96.80
33837;DHT22;20140;49.356;8.812;2022-08-03T09:02:00;26.50;96.30
33837;DHT22;20140;49.356;8.812;2022-08-03T09:04:29;26.60;95.90
33837;DHT22;20140;49.356;8.812;2022-08-03T09:06:55;26.70;96.10
33837;DHT22;20140;49.356;8.812;2022-08-03T09:09:21;26.70;96.50
33837;DHT22;20140;49.356;8.812;2022-08-03T09:11:47;26.90;95.40
33837;DHT22;20140;49.356;8.812;2022-08-03T09:14:13;27.20;94.80
33837;DHT22;20140;49.356;8.812;2022-08-03T09:16:54;27.20;94.70
33837;DHT22;20140;49.356;8.812;2022-08-03T09:19:21;27.40;94.30
33837;DHT22;20140;49.356;8.812;2022-08-03T09:24:35;27.80;93.30
33837;DHT22;20140;49.356;8.812;2022-08-03T09:27:01;27.80;93.10
33837;DHT22;20140;49.356;8.812;2022-08-03T09:29:31;27.80;93.10
33837;DHT22;20140;49.356;8.812;2022-08-03T09:32:02;27.90;92.40
33837;DHT22;20140;49.356;8.812;2022-08-03T09:34:28;28.00;92.10
33837;DHT22;20140;49.356;8.812;2022-08-03T09:36:54;28.40;91.10
33837;DHT22;20140;49.356;8.812;2022-08-03T09:39:24;28.50;90.90
33837;DHT22;20140;49.356;8.812;2022-08-03T09:44:38;28.80;89.40
33837;DHT22;20140;49.356;8.812;2022-08-03T09:47:05;28.80;88.80
33837;DHT22;20140;49.356;8.812;2022-08-03T09:49:31;28.90;87.80
33837;DHT22;20140;49.356;8.812;2022-08-03T09:52:00;29.10;87.10
33837;DHT22;20140;49.356;8.812;2022-08-03T09:54:30;29.20;87.20
33837;DHT22;20140;49.356;8.812;2022-08-03T09:56:57;29.30;86.60
33837;DHT22;20140;49.356;8.812;2022-08-03T09:59:24;29.50;83.60
33837;DHT22;20140;49.356;8.812;2022-08-03T10:01:50;29.60;82.40
33837;DHT22;20140;49.356;8.812;2022-08-03T10:04:16;29.60;83.90
33837;DHT22;20140;49.356;8.812;2022-08-03T10:06:43;29.60;86.00
33837;DHT22;20140;49.356;8.812;2022-08-03T10:09:15;29.60;83.50
33837;DHT22;20140;49.356;8.812;2022-08-03T10:11:42;29.70;83.10
33837;DHT22;20140;49.356;8.812;2022-08-03T10:14:10;29.70;82.60
33837;DHT22;20140;49.356;8.812;2022-08-03T10:16:43;29.60;82.40
33837;DHT22;20140;49.356;8.812;2022-08-03T10:19:08;29.70;83.00
33837;DHT22;20140;49.356;8.812;2022-08-03T10:21:40;29.80;83.40
33837;DHT22;20140;49.356;8.812;2022-08-03T10:24:07;29.80;83.50
33837;DHT22;20140;49.356;8.812;2022-08-03T10:26:36;29.90;83.50
33837;DHT22;20140;49.356;8.812;2022-08-03T10:29:04;30.00;84.20
33837;DHT22;20140;49.356;8.812;2022-08-03T10:31:41;30.20;83.70
33837;DHT22;20140;49.356;8.812;2022-08-03T10:34:14;30.20;82.80
33837;DHT22;20140;49.356;8.812;2022-08-03T10:36:42;30.20;83.20
33837;DHT22;20140;49.356;8.812;2022-08-03T10:39:12;30.20;82.00
33837;DHT22;20140;49.356;8.812;2022-08-03T10:41:40;30.20;83.60
33837;DHT22;20140;49.356;8.812;2022-08-03T10:44:13;30.40;82.20
33837;DHT22;20140;49.356;8.812;2022-08-03T10:46:41;30.20;81.40
33837;DHT22;20140;49.356;8.812;2022-08-03T10:49:09;30.30;83.30
33837;DHT22;20140;49.356;8.812;2022-08-03T10:51:37;30.40;81.30
33837;DHT22;20140;49.356;8.812;2022-08-03T10:54:02;30.50;81.10
33837;DHT22;20140;49.356;8.812;2022-08-03T10:59:16;30.60;81.70
33837;DHT22;20140;49.356;8.812;2022-08-03T11:01:50;30.80;80.60
33837;DHT22;20140;49.356;8.812;2022-08-03T11:04:18;30.70;80.70
33837;DHT22;20140;49.356;8.812;2022-08-03T11:06:44;30.90;80.50
33837;DHT22;20140;49.356;8.812;2022-08-03T11:09:17;31.00;78.40
33837;DHT22;20140;49.356;8.812;2022-08-03T11:11:45;31.00;79.40
33837;DHT22;20140;49.356;8.812;2022-08-03T11:14:19;31.20;77.70
33837;DHT22;20140;49.356;8.812;2022-08-03T11:16:49;31.00;77.90
33837;DHT22;20140;49.356;8.812;2022-08-03T11:19:18;30.90;78.40
33837;DHT22;20140;49.356;8.812;2022-08-03T11:30:23;31.30;79.00
33837;DHT22;20140;49.356;8.812;2022-08-03T11:32:52;31.60;78.10
33837;DHT22;20140;49.356;8.812;2022-08-03T11:40:35;32.00;77.10
33837;DHT22;20140;49.356;8.812;2022-08-03T11:43:02;32.20;75.30
33837;DHT22;20140;49.356;8.812;2022-08-03T11:45:28;32.10;76.00
33837;DHT22;20140;49.356;8.812;2022-08-03T11:47:55;32.40;75.00
33837;DHT22;20140;49.356;8.812;2022-08-03T11:50:23;32.40;73.40
33837;DHT22;20140;49.356;8.812;2022-08-03T11:52:49;32.50;72.80
33837;DHT22;20140;49.356;8.812;2022-08-03T11:55:17;32.60;73.00
33837;DHT22;20140;49.356;8.812;2022-08-03T11:57:44;32.80;72.50
33837;DHT22;20140;49.356;8.812;2022-08-03T12:00:29;33.00;71.40
33837;DHT22;20140;49.356;8.812;2022-08-03T12:03:11;32.50;71.10
33837;DHT22;20140;49.356;8.812;2022-08-03T12:05:42;32.60;71.00
33837;DHT22;20140;49.356;8.812;2022-08-03T12:08:10;32.50;70.80
33837;DHT22;20140;49.356;8.812;2022-08-03T12:10:36;32.20;71.20
33837;DHT22;20140;49.356;8.812;2022-08-03T12:13:04;32.30;70.70
33837;DHT22;20140;49.356;8.812;2022-08-03T12:15:36;32.60;70.60
33837;DHT22;20140;49.356;8.812;2022-08-03T12:18:10;33.10;68.10
33837;DHT22;20140;49.356;8.812;2022-08-03T12:20:36;33.00;68.20
33837;DHT22;20140;49.356;8.812;2022-08-03T12:23:04;32.80;67.60
33837;DHT22;20140;49.356;8.812;2022-08-03T12:25:31;32.80;67.30
33837;DHT22;20140;49.356;8.812;2022-08-03T12:28:18;33.00;68.10
33837;DHT22;20140;49.356;8.812;2022-08-03T12:30:46;33.30;68.40
33837;DHT22;20140;49.356;8.812;2022-08-03T12:33:23;33.60;66.50
33837;DHT22;20140;49.356;8.812;2022-08-03T12:36:06;33.60;65.70
33837;DHT22;20140;49.356;8.812;2022-08-03T12:38:34;33.70;65.60
33837;DHT22;20140;49.356;8.812;2022-08-03T12:41:08;33.50;66.90
33837;DHT22;20140;49.356;8.812;2022-08-03T12:43:49;33.70;67.30
33837;DHT22;20140;49.356;8.812;2022-08-03T12:46:16;34.00;66.70
33837;DHT22;20140;49.356;8.812;2022-08-03T12:48:58;33.90;66.20
33837;DHT22;20140;49.356;8.812;2022-08-03T12:51:25;33.70;66.00
33837;DHT22;20140;49.356;8.812;2022-08-03T12:53:56;33.40;65.20
33837;DHT22;20140;49.356;8.812;2022-08-03T12:56:22;33.50;65.80
33837;DHT22;20140;49.356;8.812;2022-08-03T12:58:48;33.70;65.80
33837;DHT22;20140;49.356;8.812;2022-08-03T13:01:15;33.70;64.40
33837;DHT22;20140;49.356;8.812;2022-08-03T13:03:46;34.00;64.80
33837;DHT22;20140;49.356;8.812;2022-08-03T13:06:13;34.00;64.20
33837;DHT22;20140;49.356;8.812;2022-08-03T13:08:39;33.90;64.00
33837;DHT22;20140;49.356;8.812;2022-08-03T13:11:20;34.30;64.00
33837;DHT22;20140;49.356;8.812;2022-08-03T13:13:50;34.40;61.50
33837;DHT22;20140;49.356;8.812;2022-08-03T13:16:16;34.50;62.10
33837;DHT22;20140;49.356;8.812;2022-08-03T13:18:42;34.80;61.60
33837;DHT22;20140;49.356;8.812;2022-08-03T13:21:08;34.80;60.60
33837;DHT22;20140;49.356;8.812;2022-08-03T13:23:34;35.40;60.70
33837;DHT22;20140;49.356;8.812;2022-08-03T13:25:59;35.70;59.50
33837;DHT22;20140;49.356;8.812;2022-08-03T13:28:25;36.50;57.40
33837;DHT22;20140;49.356;8.812;2022-08-03T13:30:50;36.50;57.00
33837;DHT22;20140;49.356;8.812;2022-08-03T13:33:18;35.60;57.40
33837;DHT22;20140;49.356;8.812;2022-08-03T13:35:43;35.50;57.50
33837;DHT22;20140;49.356;8.812;2022-08-03T13:38:09;35.10;58.20
33837;DHT22;20140;49.356;8.812;2022-08-03T13:40:34;35.20;59.00
33837;DHT22;20140;49.356;8.812;2022-08-03T13:43:03;35.40;58.40
33837;DHT22;20140;49.356;8.812;2022-08-03T13:45:28;35.90;58.50
33837;DHT22;20140;49.356;8.812;2022-08-03T13:47:54;37.50;56.10
33837;DHT22;20140;49.356;8.812;2022-08-03T13:50:19;37.30;54.90
33837;DHT22;20140;49.356;8.812;2022-08-03T13:52:45;37.30;54.50
33837;DHT22;20140;49.356;8.812;2022-08-03T13:55:11;37.40;53.90
33837;DHT22;20140;49.356;8.812;2022-08-03T13:57:36;37.20;53.50
33837;DHT22;20140;49.356;8.812;2022-08-03T14:00:04;36.90;53.80
33837;DHT22;20140;49.356;8.812;2022-08-03T14:02:30;36.70;55.20
33837;DHT22;20140;49.356;8.812;2022-08-03T14:04:55;37.50;54.00
33837;DHT22;20140;49.356;8.812;2022-08-03T14:07:21;37.50;52.90
33837;DHT22;20140;49.356;8.812;2022-08-03T14:09:46;36.80;54.00
33837;DHT22;20140;49.356;8.812;2022-08-03T14:12:12;36.40;54.20
33837;DHT22;20140;49.356;8.812;2022-08-03T14:14:37;36.70;54.00
33837;DHT22;20140;49.356;8.812;2022-08-03T14:17:03;37.50;53.10
33837;DHT22;20140;49.356;8.812;2022-08-03T14:19:28;36.40;51.60
33837;DHT22;20140;49.356;8.812;2022-08-03T14:21:54;36.50;51.90
33837;DHT22;20140;49.356;8.812;2022-08-03T14:24:20;36.40;52.40
33837;DHT22;20140;49.356;8.812;2022-08-03T14:26:45;36.90;52.50
33837;DHT22;20140;49.356;8.812;2022-08-03T14:29:11;37.00;52.20
33837;DHT22;20140;49.356;8.812;2022-08-03T14:31:38;37.30;52.30
33837;DHT22;20140;49.356;8.812;2022-08-03T14:34:04;38.20;51.80
33837;DHT22;20140;49.356;8.812;2022-08-03T14:36:30;38.70;48.90
33837;DHT22;20140;49.356;8.812;2022-08-03T14:38:55;38.70;50.00
33837;DHT22;20140;49.356;8.812;2022-08-03T14:41:21;38.70;50.00
33837;DHT22;20140;49.356;8.812;2022-08-03T14:43:46;38.90;48.90
33837;DHT22;20140;49.356;8.812;2022-08-03T14:46:12;37.50;49.40
33837;DHT22;20140;49.356;8.812;2022-08-03T14:48:38;38.30;49.90
33837;DHT22;20140;49.356;8.812;2022-08-03T14:51:04;39.60;48.20
33837;DHT22;20140;49.356;8.812;2022-08-03T14:53:29;40.10;47.20
33837;DHT22;20140;49.356;8.812;2022-08-03T14:55:55;40.50;46.60
33837;DHT22;20140;49.356;8.812;2022-08-03T14:58:22;40.50;46.10
33837;DHT22;20140;49.356;8.812;2022-08-03T15:00:49;40.20;46.50
33837;DHT22;20140;49.356;8.812;2022-08-03T15:03:15;40.20;45.60
33837;DHT22;20140;49.356;8.812;2022-08-03T15:05:41;39.90;45.90
33837;DHT22;20140;49.356;8.812;2022-08-03T15:08:06;40.40;45.10
33837;DHT22;20140;49.356;8.812;2022-08-03T15:10:34;41.00;44.20
33837;DHT22;20140;49.356;8.812;2022-08-03T15:12:59;40.60;45.20
33837;DHT22;20140;49.356;8.812;2022-08-03T15:15:25;39.40;46.20
33837;DHT22;20140;49.356;8.812;2022-08-03T15:17:50;39.50;45.30
33837;DHT22;20140;49.356;8.812;2022-08-03T15:20:16;37.40;47.20
33837;DHT22;20140;49.356;8.812;2022-08-03T15:22:41;37.90;48.10
33837;DHT22;20140;49.356;8.812;2022-08-03T15:25:07;39.10;46.30
33837;DHT22;20140;49.356;8.812;2022-08-03T15:27:33;39.90;45.70
33837;DHT22;20140;49.356;8.812;2022-08-03T15:29:58;39.80;45.70
33837;DHT22;20140;49.356;8.812;2022-08-03T15:32:24;40.60;44.20
33837;DHT22;20140;49.356;8.812;2022-08-03T15:34:49;40.30;44.70
33837;DHT22;20140;49.356;8.812;2022-08-03T15:37:17;39.00;45.20
33837;DHT22;20140;49.356;8.812;2022-08-03T15:39:42;38.30;46.00
33837;DHT22;20140;49.356;8.812;2022-08-03T15:42:08;38.40;46.30
33837;DHT22;20140;49.356;8.812;2022-08-03T15:44:34;38.60;46.10
33837;DHT22;20140;49.356;8.812;2022-08-03T15:46:59;39.20;45.40
33837;DHT22;20140;49.356;8.812;2022-08-03T15:49:24;39.30;45.30
33837;DHT22;20140;49.356;8.812;2022-08-03T15:51:50;38.80;45.70
33837;DHT22;20140;49.356;8.812;2022-08-03T15:54:15;38.20;46.00
33837;DHT22;20140;49.356;8.812;2022-08-03T15:56:41;37.50;46.40
33837;DHT22;20140;49.356;8.812;2022-08-03T15:59:10;38.40;46.30
33837;DHT22;20140;49.356;8.812;2022-08-03T16:01:36;38.80;45.60
33837;DHT22;20140;49.356;8.812;2022-08-03T16:04:02;38.80;46.10
33837;DHT22;20140;49.356;8.812;2022-08-03T16:06:27;38.90;45.40